Time;durP1;ratioP1;P1;durP2;ratioP2;P2;SDS_P1;SDS_P2;PMS_P1;PMS_P2;Temp;Humidity;BMP_temperature;BMP_pressure;BME280_temperature;BME280_humidity;BME280_pressure;Samples;Min_cycle;Max_cycle;Signal;HPM_P1;HPM_P2
2021/11/24 00:00:19;;;;;;;17.55;9.13;;;-0.50;93.80;;;;;;5016874;28;20223;-79
2021/11/24 00:02:46;;;;;;;12.95;9.50;;;-0.50;93.90;;;;;;5016260;28;20242;-79
2021/11/24 00:05:13;;;;;;;12.45;8.43;;;-0.60;93.80;;;;;;5014234;28;20470;-79
2021/11/24 00:07:41;;;;;;;14.48;9.77;;;-0.60;94.10;;;;;;5014326;28;20208;-79
2021/11/24 00:10:10;;;;;;;17.20;8.70;;;-0.70;94.20;;;;;;5013944;28;20278;-79
2021/11/24 00:12:37;;;;;;;14.30;8.88;;;-0.70;94.60;;;;;;5014160;28;20318;-78
2021/11/24 00:15:06;;;;;;;11.98;8.73;;;-0.70;94.80;;;;;;5015796;28;20224;-79
2021/11/24 00:17:33;;;;;;;15.68;9.80;;;-0.70;94.90;;;;;;5026138;28;20212;-78
2021/11/24 00:20:00;;;;;;;11.55;8.45;;;-0.70;94.90;;;;;;5014700;28;20591;-79
2021/11/24 00:22:27;;;;;;;12.48;8.35;;;-0.70;95.10;;;;;;5015663;28;20219;-78
2021/11/24 00:24:54;;;;;;;13.77;9.43;;;-0.70;95.30;;;;;;5014890;28;20304;-79
2021/11/24 00:27:22;;;;;;;11.75;8.95;;;-0.70;95.70;;;;;;5014788;28;20207;-79
2021/11/24 00:29:49;;;;;;;14.68;10.50;;;-0.70;95.70;;;;;;5016842;28;20214;-79
2021/11/24 00:32:16;;;;;;;15.40;10.02;;;-0.70;95.70;;;;;;5015066;28;20203;-79
2021/11/24 00:34:43;;;;;;;13.13;8.85;;;-0.70;95.60;;;;;;5015336;28;20211;-79
2021/11/24 00:37:10;;;;;;;13.43;9.02;;;-0.70;95.70;;;;;;5017322;28;20208;-78
2021/11/24 00:39:37;;;;;;;13.35;9.48;;;-0.70;95.70;;;;;;5019238;28;20208;-79
2021/11/24 00:42:04;;;;;;;13.30;9.45;;;-0.70;95.90;;;;;;5017571;28;20262;-79
2021/11/24 00:44:32;;;;;;;13.77;9.57;;;-0.70;95.50;;;;;;5019174;28;20204;-78
2021/11/24 00:46:59;;;;;;;14.90;9.32;;;-0.70;95.70;;;;;;5018717;28;20215;-79
2021/11/24 00:49:26;;;;;;;14.15;10.13;;;-0.70;95.80;;;;;;5019601;28;20218;-79
2021/11/24 00:51:53;;;;;;;19.45;9.73;;;-0.80;96.10;;;;;;5017953;28;20243;-79
2021/11/24 00:54:21;;;;;;;14.60;9.85;;;-0.80;95.90;;;;;;5018814;28;20593;-79
2021/11/24 00:56:47;;;;;;;14.73;8.25;;;-0.80;96.00;;;;;;5018694;28;20257;-79
2021/11/24 00:59:14;;;;;;;11.93;8.93;;;-0.80;95.90;;;;;;5017813;28;20208;-79
2021/11/24 01:01:42;;;;;;;13.07;9.05;;;-0.80;96.00;;;;;;5019160;28;20219;-79
2021/11/24 01:04:09;;;;;;;12.98;9.55;;;-0.80;96.50;;;;;;5019124;28;20212;-79
2021/11/24 01:06:36;;;;;;;13.63;9.95;;;-0.70;96.40;;;;;;5021850;28;20208;-79
2021/11/24 01:09:03;;;;;;;11.80;9.30;;;-0.70;96.40;;;;;;5035062;28;20192;-79
2021/11/24 01:11:30;;;;;;;12.40;10.48;;;-0.70;96.40;;;;;;5035360;28;20287;-79
2021/11/24 01:13:57;;;;;;;17.10;10.82;;;-0.70;96.40;;;;;;5034828;28;20218;-78
2021/11/24 01:16:24;;;;;;;14.05;9.80;;;-0.70;96.60;;;;;;5025140;28;20234;-79
2021/11/24 01:18:53;;;;;;;15.10;9.50;;;-0.70;96.40;;;;;;5015451;28;20256;-77
2021/11/24 01:21:20;;;;;;;15.85;9.80;;;-0.70;96.60;;;;;;5015800;28;20227;-78
2021/11/24 01:23:46;;;;;;;12.35;9.43;;;-0.60;96.40;;;;;;5020654;28;20212;-79
2021/11/24 01:26:14;;;;;;;14.95;9.50;;;-0.60;96.20;;;;;;5022827;28;20210;-77
2021/11/24 01:28:40;;;;;;;13.65;9.50;;;-0.60;96.40;;;;;;5023987;28;20208;-77
2021/11/24 01:31:08;;;;;;;12.32;9.85;;;-0.60;96.10;;;;;;5021680;28;20732;-77
2021/11/24 01:33:35;;;;;;;17.00;10.10;;;-0.60;95.70;;;;;;5015248;28;20208;-77
2021/11/24 01:36:04;;;;;;;13.13;9.88;;;-0.60;95.80;;;;;;5014001;28;20219;-77
2021/11/24 01:38:31;;;;;;;15.18;10.27;;;-0.60;95.90;;;;;;5013679;28;20303;-76
2021/11/24 01:40:58;;;;;;;12.10;9.88;;;-0.60;95.60;;;;;;5014859;28;20231;-77
2021/11/24 01:43:24;;;;;;;12.13;9.20;;;-0.60;95.50;;;;;;5018303;28;20208;-76
2021/11/24 01:45:51;;;;;;;13.32;9.95;;;-0.60;95.60;;;;;;5025576;28;20210;-77
2021/11/24 01:48:18;;;;;;;13.23;9.95;;;-0.60;95.60;;;;;;5028583;28;20222;-76
2021/11/24 01:50:45;;;;;;;18.65;9.60;;;-0.60;95.70;;;;;;5026400;28;20231;-76
2021/11/24 01:53:14;;;;;;;18.90;11.13;;;-0.60;95.80;;;;;;5026547;28;20648;-80
2021/11/24 01:55:40;;;;;;;14.90;10.73;;;-0.60;95.70;;;;;;5025609;28;20227;-77
2021/11/24 01:58:07;;;;;;;15.57;10.88;;;-0.60;95.90;;;;;;5021426;28;20203;-77
2021/11/24 02:00:36;;;;;;;16.50;10.15;;;-0.60;95.90;;;;;;5023023;28;20245;-78
2021/11/24 02:03:04;;;;;;;16.17;10.38;;;-0.60;95.90;;;;;;5021915;28;20208;-77
2021/11/24 02:05:31;;;;;;;13.90;9.68;;;-0.60;95.90;;;;;;5020496;28;20267;-76
2021/11/24 02:07:57;;;;;;;13.82;9.43;;;-0.60;95.60;;;;;;5021608;28;20215;-77
2021/11/24 02:10:26;;;;;;;14.25;10.95;;;-0.60;95.50;;;;;;5020382;28;20235;-76
2021/11/24 02:12:54;;;;;;;13.75;9.35;;;-0.60;95.70;;;;;;5020348;28;20204;-77
2021/11/24 02:15:22;;;;;;;15.05;10.43;;;-0.60;95.70;;;;;;5019860;28;20668;-76
2021/11/24 02:17:48;;;;;;;16.75;10.52;;;-0.60;95.60;;;;;;5020392;28;20667;-76
2021/11/24 02:20:17;;;;;;;15.15;11.30;;;-0.60;95.60;;;;;;5016297;28;20250;-77
2021/11/24 02:22:44;;;;;;;14.32;9.65;;;-0.60;95.70;;;;;;5015879;28;20212;-77
2021/11/24 02:25:11;;;;;;;14.48;11.35;;;-0.60;95.70;;;;;;5016390;28;20220;-77
2021/11/24 02:27:38;;;;;;;17.58;10.88;;;-0.60;95.60;;;;;;5016062;28;20342;-78
2021/11/24 02:30:06;;;;;;;13.55;10.45;;;-0.60;95.60;;;;;;5018105;28;20268;-77
2021/11/24 02:32:33;;;;;;;16.83;10.80;;;-0.60;96.10;;;;;;5023666;28;20227;-78
2021/11/24 02:35:00;;;;;;;14.82;10.55;;;-0.60;96.30;;;;;;5021265;28;20535;-78
2021/11/24 02:37:28;;;;;;;14.68;10.82;;;-0.60;96.40;;;;;;5020965;28;20224;-80
2021/11/24 02:39:56;;;;;;;15.70;11.00;;;-0.60;96.40;;;;;;5020460;28;20214;-79
2021/11/24 02:42:24;;;;;;;19.33;9.48;;;-0.60;96.40;;;;;;5023650;28;20207;-79
2021/11/24 02:44:51;;;;;;;14.18;10.18;;;-0.70;96.40;;;;;;5022847;28;20211;-80
2021/11/24 02:47:21;;;;;;;16.92;10.43;;;-0.70;96.50;;;;;;5023320;28;20258;-80
2021/11/24 02:49:51;;;;;;;15.75;9.90;;;-0.70;96.50;;;;;;5021093;28;20255;-78
2021/11/24 02:52:20;;;;;;;15.30;10.85;;;-0.70;96.50;;;;;;5022589;28;20208;-79
2021/11/24 02:54:52;;;;;;;16.98;11.43;;;-0.70;96.50;;;;;;5028596;28;20618;-79
2021/11/24 02:57:20;;;;;;;15.30;10.60;;;-0.70;96.50;;;;;;5033620;28;20235;-80
2021/11/24 02:59:47;;;;;;;18.60;11.52;;;-0.80;96.50;;;;;;5028722;28;20307;-79
2021/11/24 03:02:14;;;;;;;13.15;10.10;;;-0.80;96.80;;;;;;5024373;28;20279;-79
2021/11/24 03:04:42;;;;;;;14.70;9.88;;;-0.90;96.90;;;;;;5025439;28;20216;-80
2021/11/24 03:07:09;;;;;;;18.95;11.35;;;-0.90;97.20;;;;;;5022698;28;20300;-78
2021/11/24 03:09:35;;;;;;;17.73;10.80;;;-0.90;97.50;;;;;;5024207;28;20371;-80
2021/11/24 03:12:05;;;;;;;20.75;11.25;;;-0.90;97.90;;;;;;5024068;28;20618;-78
2021/11/24 03:14:31;;;;;;;20.63;11.23;;;-0.90;98.00;;;;;;5023633;28;20208;-79
2021/11/24 03:16:58;;;;;;;14.00;10.02;;;-0.90;98.10;;;;;;5027722;28;20310;-79
2021/11/24 03:19:25;;;;;;;14.43;10.63;;;-0.90;98.10;;;;;;5027144;28;20211;-78
2021/11/24 03:21:52;;;;;;;18.77;11.95;;;-1.00;98.10;;;;;;5019778;28;20227;-77
2021/11/24 03:24:19;;;;;;;16.63;11.00;;;-1.00;98.40;;;;;;5017140;28;20208;-77
2021/11/24 03:26:46;;;;;;;16.63;11.68;;;-0.90;98.70;;;;;;5017739;28;20203;-77
2021/11/24 03:29:15;;;;;;;15.18;10.40;;;-1.00;98.60;;;;;;5017472;28;20295;-76
2021/11/24 03:31:42;;;;;;;15.18;10.32;;;-1.00;98.60;;;;;;5015513;28;20287;-78
2021/11/24 03:34:09;;;;;;;15.10;10.60;;;-1.00;98.60;;;;;;5023757;28;20393;-77
2021/11/24 03:36:37;;;;;;;15.38;12.02;;;-1.00;98.70;;;;;;5015301;28;20220;-76
2021/11/24 03:39:04;;;;;;;15.38;9.98;;;-1.00;98.60;;;;;;5017567;28;20238;-78
2021/11/24 03:41:31;;;;;;;20.15;10.88;;;-1.00;99.00;;;;;;5014151;28;20235;-76
2021/11/24 03:43:58;;;;;;;18.20;11.98;;;-1.00;98.70;;;;;;5015122;28;20314;-78
2021/11/24 03:46:26;;;;;;;18.33;10.90;;;-1.00;98.90;;;;;;5014975;28;20204;-77
2021/11/24 03:48:53;;;;;;;17.55;11.50;;;-1.00;98.90;;;;;;5013679;28;20668;-76
2021/11/24 03:51:19;;;;;;;17.42;12.07;;;-1.00;99.10;;;;;;5014948;28;20243;-77
2021/11/24 03:53:46;;;;;;;16.42;11.57;;;-1.00;99.20;;;;;;5015402;28;20310;-77
2021/11/24 03:56:14;;;;;;;17.17;11.90;;;-1.00;99.40;;;;;;5015031;28;20238;-78
2021/11/24 03:58:41;;;;;;;22.02;12.90;;;-1.00;99.60;;;;;;5015029;28;20207;-76
2021/11/24 04:01:09;;;;;;;18.25;12.10;;;-1.00;99.70;;;;;;5014157;28;20228;-76
2021/11/24 04:03:37;;;;;;;18.73;12.80;;;-1.00;99.90;;;;;;5021587;28;20208;-76
2021/11/24 04:06:04;;;;;;;20.02;12.52;;;-1.00;99.90;;;;;;5027885;28;20204;-78
2021/11/24 04:08:31;;;;;;;15.85;11.70;;;-1.10;99.90;;;;;;5029509;28;20268;-78
2021/11/24 04:10:58;;;;;;;23.33;13.10;;;-1.00;99.90;;;;;;5026827;28;20230;-77
2021/11/24 04:13:25;;;;;;;16.58;11.70;;;-1.00;99.90;;;;;;5021591;28;20222;-79
2021/11/24 04:15:52;;;;;;;17.38;12.20;;;-1.00;99.90;;;;;;5021597;28;20207;-78
2021/11/24 04:18:19;;;;;;;19.50;11.88;;;-1.00;99.90;;;;;;5024349;28;20203;-78
2021/11/24 04:20:47;;;;;;;22.25;12.85;;;-1.10;99.90;;;;;;5017788;28;20293;-79
2021/11/24 04:23:14;;;;;;;20.77;12.38;;;-1.10;99.90;;;;;;5018979;28;20203;-79
2021/11/24 04:25:41;;;;;;;17.08;12.48;;;-1.20;99.90;;;;;;5018678;28;20214;-78
2021/11/24 04:28:08;;;;;;;16.15;11.85;;;-1.10;99.90;;;;;;5019057;28;20204;-79
2021/11/24 04:30:35;;;;;;;22.05;12.68;;;-1.10;99.90;;;;;;5018447;28;20223;-79
2021/11/24 04:33:02;;;;;;;20.55;12.95;;;-1.20;99.90;;;;;;5016963;28;20211;-79
2021/11/24 04:35:29;;;;;;;24.23;15.52;;;-1.20;99.90;;;;;;5017674;28;20211;-80
2021/11/24 04:37:57;;;;;;;23.20;14.30;;;-1.20;99.90;;;;;;5018217;28;20314;-79
2021/11/24 04:40:24;;;;;;;25.20;14.60;;;-1.20;99.90;;;;;;5019983;28;20219;-79
2021/11/24 04:42:53;;;;;;;27.05;15.43;;;-1.20;99.90;;;;;;5024182;28;20215;-80
2021/11/24 04:45:20;;;;;;;25.77;13.30;;;-1.20;99.90;;;;;;5018781;28;20242;-78
2021/11/24 04:47:47;;;;;;;20.92;12.95;;;-1.20;99.90;;;;;;5014258;28;20675;-76
2021/11/24 04:50:16;;;;;;;16.83;12.20;;;-1.20;99.90;;;;;;5013396;28;20233;-78
2021/11/24 04:52:43;;;;;;;21.67;13.48;;;-1.20;99.90;;;;;;5015834;28;20200;-78
2021/11/24 04:55:11;;;;;;;18.85;12.90;;;-1.20;99.90;;;;;;5026309;28;20211;-80
2021/11/24 04:57:38;;;;;;;17.58;11.93;;;-1.30;99.90;;;;;;5034921;28;20300;-80
2021/11/24 05:00:08;;;;;;;19.98;12.32;;;-1.30;99.90;;;;;;5034705;28;20241;-79
2021/11/24 05:02:35;;;;;;;19.50;12.57;;;-1.20;99.90;;;;;;5034750;28;20239;-78
2021/11/24 05:05:02;;;;;;;21.00;11.82;;;-1.20;99.90;;;;;;5022933;28;20697;-78
2021/11/24 05:07:29;;;;;;;16.60;11.80;;;-1.10;99.90;;;;;;4994718;28;20207;-76
2021/11/24 05:09:56;;;;;;;16.73;10.65;;;-1.10;99.90;;;;;;4994349;28;20230;-78
2021/11/24 05:12:24;;;;;;;17.63;11.85;;;-1.10;99.90;;;;;;5013313;28;20644;-78
2021/11/24 05:14:52;;;;;;;18.15;12.00;;;-1.10;99.90;;;;;;5015112;28;20212;-77
2021/11/24 05:17:21;;;;;;;17.60;11.90;;;-1.10;99.90;;;;;;5031837;28;20228;-79
2021/11/24 05:19:49;;;;;;;16.33;10.77;;;-1.10;99.90;;;;;;5033996;28;20527;-80
2021/11/24 05:22:17;;;;;;;16.90;11.38;;;-1.10;99.90;;;;;;5035074;28;20211;-79
2021/11/24 05:24:44;;;;;;;20.77;11.23;;;-1.10;99.90;;;;;;5031252;28;20230;-79
2021/11/24 05:27:11;;;;;;;12.88;10.55;;;-1.00;99.90;;;;;;5020893;28;20660;-79
2021/11/24 05:29:39;;;;;;;15.27;11.07;;;-1.00;99.90;;;;;;5025987;28;20192;-77
2021/11/24 05:32:06;;;;;;;17.40;11.55;;;-1.00;99.90;;;;;;5018535;28;20231;-76
2021/11/24 05:34:33;;;;;;;20.00;11.13;;;-1.00;99.90;;;;;;5014553;28;20212;-78
2021/11/24 05:37:02;;;;;;;14.02;10.65;;;-1.10;99.90;;;;;;5013896;28;20711;-76
2021/11/24 05:39:29;;;;;;;14.68;11.00;;;-1.10;99.90;;;;;;5012902;28;20247;-77
2021/11/24 05:41:56;;;;;;;22.08;11.38;;;-1.20;99.90;;;;;;5013015;28;20250;-77
2021/11/24 05:44:25;;;;;;;16.40;11.40;;;-1.20;99.90;;;;;;5012949;28;20208;-77
2021/11/24 05:46:57;;;;;;;18.05;11.07;;;-1.20;99.90;;;;;;5012870;28;20208;-77
2021/11/24 05:49:24;;;;;;;14.77;11.10;;;-1.20;99.90;;;;;;5013526;28;20211;-77
2021/11/24 05:51:51;;;;;;;14.50;10.27;;;-1.20;99.90;;;;;;5015352;28;20239;-79
2021/11/24 05:54:19;;;;;;;14.32;10.18;;;-1.30;99.90;;;;;;5021717;28;20211;-79
2021/11/24 05:56:46;;;;;;;12.70;10.00;;;-1.20;99.90;;;;;;5022377;28;20228;-80
2021/11/24 05:59:16;;;;;;;19.92;10.48;;;-1.20;99.90;;;;;;5021209;28;20239;-80
2021/11/24 06:01:43;;;;;;;19.98;11.70;;;-1.10;99.90;;;;;;5021062;28;20227;-79
2021/11/24 06:04:11;;;;;;;15.18;10.45;;;-1.10;99.90;;;;;;5017410;28;20207;-79
2021/11/24 06:06:39;;;;;;;19.08;11.50;;;-1.20;99.90;;;;;;5021158;28;20326;-80
2021/11/24 06:09:07;;;;;;;16.45;10.40;;;-1.20;99.90;;;;;;5021197;28;20250;-79
2021/11/24 06:11:34;;;;;;;20.95;12.48;;;-1.20;99.90;;;;;;5019524;28;20235;-80
2021/11/24 06:14:01;;;;;;;15.95;11.68;;;-1.10;99.90;;;;;;5023914;28;20246;-78
2021/11/24 06:16:28;;;;;;;20.83;13.70;;;-1.10;99.90;;;;;;5030739;28;20203;-79
2021/11/24 06:18:55;;;;;;;20.02;11.73;;;-1.00;99.90;;;;;;5031125;28;20206;-79
2021/11/24 06:21:23;;;;;;;20.20;12.55;;;-1.10;99.90;;;;;;5027380;28;20245;-80
2021/11/24 06:23:51;;;;;;;19.25;12.45;;;-1.10;99.90;;;;;;5017900;28;20262;-80
2021/11/24 06:26:20;;;;;;;19.48;12.85;;;-1.10;99.90;;;;;;5018847;28;20204;-80
2021/11/24 06:28:48;;;;;;;23.83;12.43;;;-1.00;99.90;;;;;;5024970;28;20218;-79
2021/11/24 06:31:15;;;;;;;21.48;12.85;;;-0.90;99.90;;;;;;5026790;28;20266;-79
2021/11/24 06:33:42;;;;;;;20.95;12.60;;;-0.80;99.90;;;;;;5024859;28;20207;-79
2021/11/24 06:36:09;;;;;;;17.20;13.32;;;-0.80;99.90;;;;;;5025213;28;20216;-79
2021/11/24 06:38:37;;;;;;;35.92;14.15;;;-0.80;99.90;;;;;;5019046;28;20238;-79
2021/11/24 06:41:04;;;;;;;20.52;13.13;;;-0.70;99.90;;;;;;5021343;28;20251;-80
2021/11/24 06:43:31;;;;;;;20.95;14.18;;;-0.80;99.90;;;;;;5019052;28;20216;-80
2021/11/24 06:45:58;;;;;;;25.35;14.07;;;-0.70;99.90;;;;;;5021336;28;20586;-79
2021/11/24 06:48:25;;;;;;;22.38;14.43;;;-0.70;99.90;;;;;;5025286;28;20679;-80
2021/11/24 06:50:52;;;;;;;21.48;13.35;;;-0.70;99.90;;;;;;5021103;28;20255;-79
2021/11/24 06:53:18;;;;;;;26.42;13.65;;;-0.70;99.90;;;;;;5020561;28;20208;-79
2021/11/24 06:55:49;;;;;;;26.00;13.40;;;-0.70;99.90;;;;;;5021049;28;20553;-79
2021/11/24 06:58:17;;;;;;;25.08;14.18;;;-0.70;99.90;;;;;;5023909;28;20564;-80
2021/11/24 07:00:44;;;;;;;25.02;14.32;;;-0.60;99.90;;;;;;5022579;28;20604;-81
2021/11/24 07:03:11;;;;;;;31.40;15.90;;;-0.60;99.90;;;;;;5016668;28;20204;-80
2021/11/24 07:05:38;;;;;;;29.45;15.02;;;-0.50;99.90;;;;;;5020654;28;20207;-79
2021/11/24 07:08:06;;;;;;;34.95;14.88;;;-0.40;99.90;;;;;;5018854;28;20214;-77
2021/11/24 07:10:33;;;;;;;31.45;15.45;;;-0.40;99.90;;;;;;5018591;28;20232;-77
2021/11/24 07:13:02;;;;;;;31.00;15.15;;;-0.40;99.90;;;;;;5018470;28;20233;-78
2021/11/24 07:15:29;;;;;;;33.10;16.10;;;-0.30;99.90;;;;;;5023604;28;20212;-80
2021/11/24 07:17:56;;;;;;;33.65;16.00;;;-0.30;99.90;;;;;;5027136;28;20282;-78
2021/11/24 07:20:23;;;;;;;28.38;14.07;;;-0.30;99.90;;;;;;5034374;28;20291;-80
2021/11/24 07:22:50;;;;;;;34.10;16.38;;;-0.20;99.90;;;;;;5032367;28;20208;-81
2021/11/24 07:25:17;;;;;;;31.63;15.50;;;-0.20;99.90;;;;;;5029757;28;20196;-79
2021/11/24 07:27:44;;;;;;;30.00;16.20;;;-0.10;99.90;;;;;;5030200;28;20215;-80
2021/11/24 07:30:14;;;;;;;33.45;15.98;;;-0.10;99.90;;;;;;5020746;28;20234;-79
2021/11/24 07:32:41;;;;;;;30.33;16.58;;;0.00;99.90;;;;;;5020959;28;20212;-80
2021/11/24 07:35:08;;;;;;;32.17;14.95;;;0.10;99.90;;;;;;5028745;28;20218;-79
2021/11/24 07:37:35;;;;;;;30.15;15.05;;;0.10;99.90;;;;;;5024457;28;20275;-78
2021/11/24 07:40:02;;;;;;;31.60;16.08;;;0.20;99.90;;;;;;5026297;28;20302;-80
2021/11/24 07:42:29;;;;;;;25.55;13.80;;;0.30;99.90;;;;;;5017191;28;20306;-78
2021/11/24 07:44:56;;;;;;;29.00;14.85;;;0.30;99.90;;;;;;5020512;28;20226;-78
2021/11/24 07:47:24;;;;;;;30.92;14.55;;;0.40;99.90;;;;;;5018482;28;20207;-77
2021/11/24 07:49:51;;;;;;;33.10;15.75;;;0.40;99.90;;;;;;5017254;28;20212;-79
2021/11/24 07:52:19;;;;;;;30.67;13.75;;;0.40;99.90;;;;;;5017171;28;20208;-80
2021/11/24 07:54:46;;;;;;;24.17;14.57;;;0.50;99.90;;;;;;5017567;28;20230;-78
2021/11/24 07:57:13;;;;;;;27.10;14.63;;;0.50;99.90;;;;;;5016299;28;20234;-78
2021/11/24 07:59:40;;;;;;;30.65;14.70;;;0.50;99.90;;;;;;5016802;28;20208;-77
2021/11/24 08:02:07;;;;;;;30.33;16.38;;;0.60;99.90;;;;;;5017642;28;20228;-77
2021/11/24 08:04:35;;;;;;;26.88;14.63;;;0.60;99.90;;;;;;5019629;28;20212;-80
2021/11/24 08:07:03;;;;;;;27.73;13.13;;;0.60;99.90;;;;;;5024565;28;20216;-80
2021/11/24 08:09:31;;;;;;;24.45;12.45;;;0.70;99.90;;;;;;5020980;28;20235;-81
2021/11/24 08:11:59;;;;;;;24.63;13.68;;;0.80;99.90;;;;;;5023231;28;20228;-78
2021/11/24 08:14:26;;;;;;;21.92;12.43;;;0.80;99.90;;;;;;5029102;28;20214;-78
2021/11/24 08:16:53;;;;;;;23.75;13.55;;;0.90;99.90;;;;;;5026941;28;20273;-77
2021/11/24 08:19:20;;;;;;;21.30;12.13;;;0.90;99.90;;;;;;5023668;28;20286;-77
2021/11/24 08:21:49;;;;;;;20.63;12.30;;;1.00;99.90;;;;;;5017614;28;20227;-77
2021/11/24 08:24:16;;;;;;;26.25;12.95;;;1.00;99.50;;;;;;5025158;28;20207;-77
2021/11/24 08:26:43;;;;;;;20.73;11.77;;;1.10;98.70;;;;;;5030812;28;20302;-79
2021/11/24 08:29:11;;;;;;;25.70;12.68;;;1.20;98.10;;;;;;5030627;28;20212;-78
2021/11/24 08:31:40;;;;;;;21.92;11.57;;;1.20;97.50;;;;;;5029585;28;20238;-79
2021/11/24 08:34:08;;;;;;;25.77;13.40;;;1.30;96.60;;;;;;5027205;28;20208;-78
2021/11/24 08:36:34;;;;;;;24.27;12.55;;;1.30;95.50;;;;;;5015760;28;20328;-77
2021/11/24 08:39:04;;;;;;;21.92;12.38;;;1.30;95.20;;;;;;5014927;28;20232;-78
2021/11/24 08:41:30;;;;;;;22.38;12.52;;;1.40;94.90;;;;;;5015358;28;20237;-78
2021/11/24 08:43:57;;;;;;;20.45;11.85;;;1.50;94.50;;;;;;5015579;28;20215;-78
2021/11/24 08:46:24;;;;;;;23.02;12.77;;;1.50;93.30;;;;;;5024068;28;20192;-81
2021/11/24 08:48:51;;;;;;;17.98;11.80;;;1.50;93.10;;;;;;5034703;28;20255;-79
2021/11/24 08:51:17;;;;;;;23.58;12.98;;;1.50;92.00;;;;;;5034260;28;20588;-79
2021/11/24 08:53:44;;;;;;;23.38;12.90;;;1.50;90.90;;;;;;5033303;28;20196;-79
2021/11/24 08:56:12;;;;;;;21.42;12.02;;;1.50;90.40;;;;;;5034478;28;20263;-79
2021/11/24 08:58:40;;;;;;;21.98;12.85;;;1.60;90.30;;;;;;5032779;28;20291;-78
2021/11/24 09:01:08;;;;;;;22.77;12.55;;;1.60;90.20;;;;;;5033040;28;20238;-79
2021/11/24 09:03:34;;;;;;;16.30;11.70;;;1.60;89.20;;;;;;5022002;28;20571;-77
2021/11/24 09:06:03;;;;;;;19.08;11.00;;;1.70;88.90;;;;;;5014969;28;20570;-77
2021/11/24 09:08:31;;;;;;;21.05;12.82;;;1.70;86.90;;;;;;5013303;28;20291;-79
2021/11/24 09:10:58;;;;;;;20.40;13.15;;;1.80;86.90;;;;;;5013012;28;20243;-77
2021/11/24 09:13:26;;;;;;;19.95;12.23;;;1.90;86.90;;;;;;5013526;28;20215;-77
2021/11/24 09:15:53;;;;;;;19.52;11.75;;;1.90;84.90;;;;;;5013113;28;20205;-78
2021/11/24 09:18:20;;;;;;;18.13;11.35;;;2.00;83.70;;;;;;5015580;28;20240;-80
2021/11/24 09:20:47;;;;;;;16.17;11.25;;;2.10;84.10;;;;;;5016567;28;20239;-81
2021/11/24 09:23:17;;;;;;;18.80;11.98;;;2.20;83.20;;;;;;5017269;28;20208;-80
2021/11/24 09:25:50;;;;;;;16.23;11.35;;;2.20;83.20;;;;;;5018707;28;20560;-81
2021/11/24 09:28:18;;;;;;;16.70;10.95;;;2.30;81.60;;;;;;5017495;28;20214;-79
2021/11/24 09:30:47;;;;;;;14.95;10.73;;;2.40;80.10;;;;;;5017259;28;20225;-80
2021/11/24 09:33:14;;;;;;;17.33;11.75;;;2.50;77.70;;;;;;5018345;28;20212;-80
2021/11/24 09:35:41;;;;;;;15.63;10.85;;;2.50;77.00;;;;;;5017852;28;20203;-81
2021/11/24 09:38:08;;;;;;;15.13;10.25;;;2.50;76.50;;;;;;5018220;28;20707;-79
2021/11/24 09:40:36;;;;;;;16.98;11.80;;;2.60;76.00;;;;;;5018300;28;20228;-80
2021/11/24 09:43:05;;;;;;;14.88;11.00;;;2.70;74.60;;;;;;5025128;28;20207;-80
2021/11/24 09:45:33;;;;;;;15.18;10.85;;;2.70;74.20;;;;;;5019719;28;20302;-80
2021/11/24 09:48:02;;;;;;;17.25;11.20;;;2.80;73.40;;;;;;5018479;28;20286;-80
2021/11/24 09:50:32;;;;;;;16.00;11.05;;;2.80;72.90;;;;;;5017627;28;20262;-80
2021/11/24 09:53:00;;;;;;;17.30;10.75;;;2.70;71.30;;;;;;5018722;28;20236;-80
2021/11/24 09:55:30;;;;;;;17.42;10.93;;;2.60;72.80;;;;;;5017362;28;20695;-80
2021/11/24 09:57:58;;;;;;;19.58;11.60;;;2.60;72.90;;;;;;5018337;28;20246;-80
2021/11/24 10:00:26;;;;;;;17.45;10.65;;;2.60;72.80;;;;;;5012498;28;20684;-77
2021/11/24 10:02:55;;;;;;;21.52;11.40;;;2.60;72.30;;;;;;5012933;28;20373;-76
2021/11/24 10:05:24;;;;;;;20.67;12.20;;;2.50;72.90;;;;;;5013972;28;20219;-77
2021/11/24 10:07:51;;;;;;;21.60;11.90;;;2.60;72.80;;;;;;5012741;28;20203;-76
2021/11/24 10:10:18;;;;;;;17.75;11.05;;;2.60;72.70;;;;;;5015380;28;20676;-77
2021/11/24 10:12:45;;;;;;;17.48;11.48;;;2.60;72.30;;;;;;5013240;28;20219;-78
2021/11/24 10:15:32;;;;;;;17.25;11.27;;;2.50;73.20;;;;;;5012654;28;20222;-78
2021/11/24 10:18:15;;;;;;;19.05;10.73;;;2.50;72.90;;;;;;5012357;28;20228;-77
2021/11/24 10:20:56;;;;;;;18.38;11.23;;;2.50;72.90;;;;;;5015582;28;20228;-77
2021/11/24 10:23:32;;;;;;;23.55;11.00;;;2.50;72.70;;;;;;5017665;28;20197;-77
2021/11/24 10:26:23;;;;;;;19.92;12.00;;;2.50;72.50;;;;;;5021428;28;20247;-78
2021/11/24 10:28:53;;;;;;;19.30;11.95;;;2.60;72.30;;;;;;5020243;28;20204;-80
2021/11/24 10:31:26;;;;;;;19.73;11.68;;;2.70;72.00;;;;;;5022965;28;20228;-78
2021/11/24 10:33:52;;;;;;;16.90;11.90;;;2.70;71.00;;;;;;5024325;28;20300;-77
2021/11/24 10:36:21;;;;;;;23.58;12.15;;;2.80;71.10;;;;;;5023181;28;20215;-79
2021/11/24 10:38:52;;;;;;;18.10;11.45;;;2.80;71.10;;;;;;5022735;28;20235;-78
2021/11/24 10:41:39;;;;;;;21.17;13.13;;;3.00;71.30;;;;;;5026564;28;20315;-77
2021/11/24 10:44:06;;;;;;;18.10;11.95;;;3.10;69.70;;;;;;5029113;28;20580;-79
2021/11/24 10:46:35;;;;;;;18.00;11.48;;;3.30;70.00;;;;;;5026740;28;20312;-79
2021/11/24 10:49:06;;;;;;;19.05;11.38;;;3.30;68.50;;;;;;5023493;28;20270;-78
2021/11/24 10:51:41;;;;;;;16.85;11.63;;;3.20;67.90;;;;;;5023950;28;20239;-77
2021/11/24 10:54:15;;;;;;;16.73;11.05;;;3.30;68.70;;;;;;5026502;28;20217;-79
2021/11/24 10:57:02;;;;;;;15.75;9.80;;;3.40;68.40;;;;;;5029991;28;20210;-79
2021/11/24 10:59:31;;;;;;;16.95;11.27;;;3.50;66.80;;;;;;5029736;28;20312;-78
2021/11/24 11:02:18;;;;;;;17.15;11.13;;;3.50;66.70;;;;;;5030891;28;20237;-79
2021/11/24 11:04:59;;;;;;;16.35;10.48;;;3.60;66.50;;;;;;5032618;28;20245;-80
2021/11/24 11:07:30;;;;;;;14.88;10.57;;;3.60;66.40;;;;;;5036986;28;20202;-78
2021/11/24 11:10:06;;;;;;;17.23;11.48;;;3.70;66.00;;;;;;5036252;28;20224;-76
2021/11/24 11:12:34;;;;;;;13.60;9.48;;;3.70;66.10;;;;;;5036836;28;20199;-77
2021/11/24 11:15:22;;;;;;;15.90;10.98;;;3.80;65.50;;;;;;5036791;28;20222;-76
2021/11/24 11:17:51;;;;;;;16.70;11.65;;;3.90;64.70;;;;;;5037025;28;20258;-76
2021/11/24 11:20:19;;;;;;;15.82;10.85;;;3.90;64.70;;;;;;5035796;28;20237;-77
2021/11/24 11:22:53;;;;;;;18.00;11.65;;;3.90;64.80;;;;;;5037477;28;20283;-77
2021/11/24 11:25:20;;;;;;;17.73;11.82;;;4.00;63.50;;;;;;5037308;28;20227;-77
2021/11/24 11:27:47;;;;;;;17.50;12.10;;;4.10;63.60;;;;;;5037762;28;20197;-76
2021/11/24 11:30:14;;;;;;;15.10;10.57;;;4.10;63.50;;;;;;5037062;28;20301;-76
2021/11/24 11:32:41;;;;;;;18.02;12.15;;;4.10;63.50;;;;;;5037797;28;20221;-79
2021/11/24 11:35:08;;;;;;;18.17;12.05;;;4.00;62.60;;;;;;5036668;28;20293;-78
2021/11/24 11:37:35;;;;;;;18.70;11.95;;;4.00;62.80;;;;;;5033111;28;20221;-78
2021/11/24 11:40:04;;;;;;;18.60;12.95;;;4.00;62.50;;;;;;5032783;28;20636;-78
2021/11/24 11:42:31;;;;;;;19.25;11.85;;;3.80;63.30;;;;;;5031949;28;20199;-79
2021/11/24 11:45:07;;;;;;;20.67;12.20;;;3.60;63.80;;;;;;5032740;28;20241;-80
2021/11/24 11:47:50;;;;;;;16.60;10.80;;;3.60;63.80;;;;;;5024281;28;20273;-80
2021/11/24 11:53:09;;;;;;;22.85;13.30;;;3.50;64.70;;;;;;4991303;28;20223;-79
2021/11/24 11:55:38;;;;;;;20.60;13.18;;;3.40;65.50;;;;;;4984211;28;20209;-80
2021/11/24 11:58:23;;;;;;;18.75;12.45;;;3.40;65.40;;;;;;4984399;28;20208;-79
2021/11/24 12:01:10;;;;;;;19.65;13.20;;;3.40;65.40;;;;;;4985360;28;20295;-80
2021/11/24 12:04:13;;;;;;;20.05;12.38;;;3.50;65.10;;;;;;5000159;28;20222;-79
2021/11/24 12:06:43;;;;;;;17.50;11.45;;;3.60;63.90;;;;;;4939678;29;20713;-80
2021/11/24 12:09:16;;;;;;;18.65;12.30;;;3.60;63.90;;;;;;4939019;29;20282;-80
2021/11/24 12:12:10;;;;;;;21.38;13.40;;;3.60;63.60;;;;;;4945791;29;20224;-80
2021/11/24 12:15:05;;;;;;;16.55;11.73;;;3.60;63.30;;;;;;4942711;29;20234;-80
2021/11/24 12:17:46;;;;;;;20.08;12.50;;;3.70;63.60;;;;;;4945369;29;20221;-80
2021/11/24 12:20:52;;;;;;;18.35;11.60;;;3.70;63.20;;;;;;4949269;29;20224;-79
2021/11/24 12:23:22;;;;;;;17.90;12.30;;;3.80;63.30;;;;;;4943779;29;20192;-80
2021/11/24 12:25:50;;;;;;;15.07;10.70;;;4.00;63.50;;;;;;4948251;29;20213;-80
2021/11/24 12:28:20;;;;;;;17.55;11.82;;;4.00;63.50;;;;;;4947943;29;20220;-80
2021/11/24 12:31:08;;;;;;;18.23;12.15;;;4.00;62.10;;;;;;4944015;29;20243;-80
2021/11/24 12:33:41;;;;;;;20.48;12.55;;;4.00;62.20;;;;;;4944760;29;20283;-83
2021/11/24 12:36:11;;;;;;;17.35;11.30;;;4.10;62.00;;;;;;4941528;29;20233;-80
2021/11/24 12:38:43;;;;;;;15.65;10.88;;;4.10;61.40;;;;;;4996510;28;20255;-80
2021/11/24 12:41:12;;;;;;;14.93;10.80;;;4.00;61.60;;;;;;5002295;28;20235;-81
2021/11/24 12:43:43;;;;;;;14.95;11.30;;;4.10;62.00;;;;;;5003036;28;20215;-80